createdAt,value
2022-08-20T00:01:11.001Z,62.40
2022-08-20T00:03:44.710Z,62.70
2022-08-20T00:06:20.526Z,62.80
2022-08-20T00:08:47.551Z,63.20
2022-08-20T00:11:19.138Z,63.30
2022-08-20T00:13:53.820Z,63.50
2022-08-20T00:16:23.824Z,63.60
2022-08-20T00:18:51.347Z,63.50
2022-08-20T00:21:21.077Z,63.30
2022-08-20T00:23:52.512Z,63.50
2022-08-20T00:26:19.826Z,63.60
2022-08-20T00:28:46.789Z,64.00
2022-08-20T00:31:16.713Z,64.20
2022-08-20T00:33:43.907Z,64.30
2022-08-20T00:36:12.238Z,64.40
2022-08-20T00:38:42.768Z,64.60
2022-08-20T00:41:13.461Z,65.30
2022-08-20T00:43:48.476Z,64.50
2022-08-20T00:46:20.188Z,64.50
2022-08-20T00:48:50.960Z,64.60
2022-08-20T00:51:29.930Z,64.60
2022-08-20T00:54:03.679Z,64.60
2022-08-20T00:56:33.767Z,64.60
2022-08-20T00:59:01.886Z,64.80
2022-08-20T01:01:29.033Z,64.90
2022-08-20T01:03:56.594Z,65.20
2022-08-20T01:06:25.170Z,65.60
2022-08-20T01:08:52.539Z,66.10
2022-08-20T01:11:22.716Z,66.50
2022-08-20T01:13:50.749Z,66.60
2022-08-20T01:16:26.628Z,67.00
2022-08-20T01:18:57.624Z,66.90
2022-08-20T01:21:31.500Z,67.40
2022-08-20T01:24:01.003Z,67.20
2022-08-20T01:26:34.196Z,67.40
2022-08-20T01:29:11.061Z,67.30
2022-08-20T01:31:41.535Z,67.50
2022-08-20T01:34:13.028Z,67.40
2022-08-20T01:36:45.948Z,67.40
2022-08-20T01:39:16.090Z,67.50
2022-08-20T01:41:51.855Z,67.60
2022-08-20T01:44:22.424Z,67.80
2022-08-20T01:46:57.500Z,68.00
2022-08-20T01:49:32.257Z,68.10
2022-08-20T01:52:02.564Z,68.50
2022-08-20T01:54:32.170Z,68.70
2022-08-20T01:57:17.235Z,68.60
2022-08-20T01:59:45.133Z,68.80
2022-08-20T02:02:12.870Z,69.30
2022-08-20T02:04:40.976Z,69.70
2022-08-20T02:07:12.849Z,69.70
2022-08-20T02:09:40.034Z,69.90
2022-08-20T02:12:09.529Z,70.00
2022-08-20T02:14:42.177Z,70.40
2022-08-20T02:17:10.675Z,70.70
2022-08-20T02:19:53.194Z,70.50
2022-08-20T02:22:27.035Z,70.60
2022-08-20T02:24:54.379Z,70.90
2022-08-20T02:27:23.843Z,71.20
2022-08-20T02:29:51.270Z,71.50
2022-08-20T02:32:32.472Z,71.60
2022-08-20T02:35:03.678Z,71.80
2022-08-20T02:37:30.785Z,71.40
2022-08-20T02:39:57.718Z,71.10
2022-08-20T02:42:24.564Z,71.00
2022-08-20T02:44:51.723Z,71.10
2022-08-20T02:47:18.786Z,71.00
2022-08-20T02:49:45.617Z,70.90
2022-08-20T02:52:12.466Z,71.20
2022-08-20T02:54:39.209Z,71.40
2022-08-20T02:57:11.398Z,71.50
2022-08-20T02:59:38.780Z,71.80
2022-08-20T03:02:05.717Z,72.10
2022-08-20T03:04:32.508Z,72.20
2022-08-20T03:06:59.414Z,72.60
2022-08-20T03:09:26.519Z,73.00
2022-08-20T03:11:54.093Z,73.40
2022-08-20T03:14:20.883Z,73.60
2022-08-20T03:16:47.729Z,73.80
2022-08-20T03:19:14.510Z,74.10
2022-08-20T03:21:41.672Z,74.30
2022-08-20T03:24:08.603Z,74.60
2022-08-20T03:26:35.391Z,75.10
2022-08-20T03:29:02.491Z,75.30
2022-08-20T03:31:29.712Z,75.90
2022-08-20T03:33:56.638Z,76.20
2022-08-20T03:36:27.920Z,76.60
2022-08-20T03:39:02.347Z,76.60
2022-08-20T03:41:29.226Z,76.90
2022-08-20T03:43:56.212Z,77.20
2022-08-20T03:46:23.944Z,77.50
2022-08-20T03:48:59.636Z,77.50
2022-08-20T03:51:28.960Z,77.60
2022-08-20T03:53:56.329Z,77.90
2022-08-20T03:56:23.070Z,78.20
2022-08-20T03:58:50.019Z,78.70
2022-08-20T04:01:44.858Z,79.20
2022-08-20T04:04:04.552Z,79.60
2022-08-20T04:06:31.642Z,80.50
2022-08-20T04:08:58.490Z,80.80
2022-08-20T04:11:25.303Z,81.30
2022-08-20T04:13:52.143Z,82.00
2022-08-20T04:16:19.563Z,82.30
2022-08-20T04:19:01.828Z,83.10
2022-08-20T04:21:33.012Z,83.70
2022-08-20T04:24:00.876Z,84.10
2022-08-20T04:26:27.834Z,83.70
2022-08-20T04:28:55.483Z,84.90
2022-08-20T04:31:27.104Z,85.50
2022-08-20T04:33:54.100Z,86.20
2022-08-20T04:36:20.850Z,86.90
2022-08-20T04:38:50.406Z,87.20
2022-08-20T04:41:23.610Z,87.70
2022-08-20T04:43:53.982Z,88.50
2022-08-20T04:46:25.355Z,88.90
2022-08-20T04:48:52.240Z,89.10
2022-08-20T04:51:22.917Z,89.30
2022-08-20T04:53:51.951Z,89.50
2022-08-20T04:56:23.353Z,89.90
2022-08-20T04:58:51.419Z,90.10
2022-08-20T05:01:18.463Z,90.40
2022-08-20T05:03:47.831Z,90.60
2022-08-20T05:06:16.648Z,91.00
2022-08-20T05:08:43.730Z,91.50
2022-08-20T05:11:32.926Z,91.70
2022-08-20T05:13:58.200Z,92.10
2022-08-20T05:16:25.018Z,92.30
2022-08-20T05:18:52.793Z,92.60
2022-08-20T05:21:20.955Z,92.90
2022-08-20T05:23:49.082Z,93.20
2022-08-20T05:26:16.677Z,93.40
2022-08-20T05:28:49.943Z,93.70
2022-08-20T05:31:31.302Z,93.80
2022-08-20T05:34:11.607Z,94.00
2022-08-20T05:36:49.068Z,94.10
2022-08-20T05:39:19.151Z,94.30
2022-08-20T05:41:51.125Z,94.80
2022-08-20T05:44:19.378Z,95.00
2022-08-20T05:46:48.002Z,95.10
2022-08-20T05:49:19.474Z,95.20
2022-08-20T05:51:47.575Z,95.30
2022-08-20T05:54:14.962Z,95.50
2022-08-20T05:56:42.003Z,95.50
2022-08-20T05:59:10.112Z,95.50
2022-08-20T06:01:39.829Z,95.80
2022-08-20T06:04:26.714Z,96.20
2022-08-20T06:07:01.900Z,96.50
2022-08-20T06:09:31.801Z,97.00
2022-08-20T06:12:05.881Z,97.20
2022-08-20T06:14:33.208Z,97.50
2022-08-20T06:17:13.262Z,97.80
2022-08-20T06:19:44.145Z,97.70
2022-08-20T06:22:19.213Z,97.90
2022-08-20T06:24:51.498Z,97.50
2022-08-20T06:27:19.476Z,98.20
2022-08-20T06:29:46.310Z,98.60
2022-08-20T06:32:14.066Z,98.70
2022-08-20T06:34:49.940Z,98.80
2022-08-20T06:37:27.466Z,98.80
2022-08-20T06:40:03.273Z,98.80
2022-08-20T06:42:30.185Z,99.00
2022-08-20T06:44:59.531Z,98.90
2022-08-20T06:47:26.305Z,98.80
2022-08-20T06:49:53.089Z,98.90
2022-08-20T06:52:20.047Z,98.90
2022-08-20T06:54:55.495Z,99.10
2022-08-20T06:57:22.310Z,98.80
2022-08-20T06:59:52.376Z,98.90
2022-08-20T07:02:22.349Z,99.00
2022-08-20T07:04:55.628Z,99.10
2022-08-20T07:07:22.496Z,99.20
2022-08-20T07:09:49.300Z,99.40
2022-08-20T07:12:16.125Z,99.50
2022-08-20T07:14:43.163Z,99.60
2022-08-20T07:17:12.259Z,99.80
2022-08-20T07:19:39.241Z,99.90
2022-08-20T07:22:06.818Z,99.90
2022-08-20T07:24:35.715Z,99.90
2022-08-20T07:27:05.248Z,99.90
2022-08-20T07:29:52.020Z,99.90
2022-08-20T07:32:34.289Z,99.90
2022-08-20T07:35:12.563Z,99.90
2022-08-20T07:37:45.451Z,99.90
2022-08-20T07:40:15.517Z,99.90
2022-08-20T07:42:42.429Z,99.90
2022-08-20T07:45:14.217Z,99.80
2022-08-20T07:47:42.576Z,99.40
2022-08-20T07:50:11.831Z,99.90
2022-08-20T07:52:38.609Z,99.20
2022-08-20T07:55:08.383Z,99.00
2022-08-20T07:57:35.704Z,99.00
2022-08-20T08:00:03.627Z,98.60
2022-08-20T08:02:36.728Z,98.30
2022-08-20T08:05:05.360Z,97.10
2022-08-20T08:07:33.686Z,96.80
2022-08-20T08:10:05.264Z,96.30
2022-08-20T08:12:43.224Z,95.60
2022-08-20T08:15:14.205Z,95.80
2022-08-20T08:17:41.590Z,95.80
2022-08-20T08:20:09.307Z,96.10
2022-08-20T08:22:36.466Z,95.40
2022-08-20T08:25:04.209Z,95.40
2022-08-20T08:27:34.648Z,95.40
2022-08-20T08:30:02.786Z,95.30
2022-08-20T08:32:31.999Z,95.90
2022-08-20T08:35:03.540Z,96.40
2022-08-20T08:37:31.031Z,96.30
2022-08-20T08:39:57.934Z,96.20
2022-08-20T08:42:48.212Z,96.30
2022-08-20T08:45:18.657Z,96.30
2022-08-20T08:47:45.654Z,96.40
2022-08-20T08:50:49.924Z,96.90
2022-08-20T08:53:22.904Z,97.00
2022-08-20T08:55:49.847Z,97.00
2022-08-20T08:58:17.482Z,97.10
2022-08-20T09:00:56.095Z,97.30
2022-08-20T09:03:34.247Z,97.20
2022-08-20T09:06:03.094Z,97.40
2022-08-20T09:08:52.100Z,97.90
2022-08-20T09:11:21.009Z,98.00
2022-08-20T09:13:48.252Z,97.90
2022-08-20T09:16:15.716Z,97.80
2022-08-20T09:18:42.776Z,97.50
2022-08-20T09:21:10.712Z,96.40
2022-08-20T09:23:37.879Z,95.90
2022-08-20T09:26:04.815Z,95.70
2022-08-20T09:28:32.477Z,95.40
2022-08-20T09:31:03.028Z,95.40
2022-08-20T09:33:31.357Z,95.30
2022-08-20T09:35:58.237Z,95.30
2022-08-20T09:38:25.070Z,95.60
2022-08-20T09:40:51.793Z,95.70
2022-08-20T09:43:18.690Z,95.30
2022-08-20T09:45:45.487Z,95.30
2022-08-20T09:48:12.293Z,94.60
2022-08-20T09:50:48.926Z,94.00
2022-08-20T09:53:17.482Z,92.90
2022-08-20T09:55:46.675Z,91.80
2022-08-20T09:58:38.131Z,91.60
2022-08-20T10:01:13.878Z,91.30
2022-08-20T10:03:42.301Z,91.50
2022-08-20T10:06:11.004Z,91.10
2022-08-20T10:08:38.522Z,90.80
2022-08-20T10:11:05.444Z,91.00
2022-08-20T10:13:32.463Z,91.30
2022-08-20T10:15:59.258Z,91.30
2022-08-20T10:18:26.098Z,90.80
2022-08-20T10:20:52.878Z,90.00
2022-08-20T10:23:19.677Z,90.00
2022-08-20T10:25:47.699Z,90.20
2022-08-20T10:28:14.698Z,87.80
2022-08-20T10:30:41.546Z,87.30
2022-08-20T10:33:08.315Z,86.00
2022-08-20T10:35:35.106Z,86.10
2022-08-20T10:38:02.369Z,86.30
2022-08-20T10:40:29.295Z,86.40
2022-08-20T10:42:56.055Z,85.50
2022-08-20T10:45:25.281Z,84.40
2022-08-20T10:47:52.224Z,83.70
2022-08-20T10:50:20.061Z,85.40
2022-08-20T10:52:47.320Z,86.50
2022-08-20T10:55:14.677Z,84.80
2022-08-20T10:57:43.427Z,84.40
2022-08-20T11:00:13.578Z,83.00
2022-08-20T11:02:40.409Z,82.00
2022-08-20T11:05:08.104Z,80.80
2022-08-20T11:07:50.031Z,79.60
2022-08-20T11:10:25.518Z,79.90
2022-08-20T11:12:52.342Z,79.70
2022-08-20T11:15:19.287Z,80.10
2022-08-20T11:17:47.305Z,80.80
2022-08-20T11:20:18.026Z,82.20
2022-08-20T11:22:44.742Z,82.80
2022-08-20T11:25:11.618Z,83.50
2022-08-20T11:27:46.624Z,83.10
2022-08-20T11:30:17.470Z,83.40
2022-08-20T11:32:44.383Z,83.20
2022-08-20T11:35:40.513Z,83.70
2022-08-20T11:37:59.491Z,82.30
2022-08-20T11:40:27.295Z,83.20
2022-08-20T11:43:13.745Z,82.30
2022-08-20T11:45:41.828Z,79.80
2022-08-20T11:48:08.622Z,78.20
2022-08-20T11:50:35.455Z,75.90
2022-08-20T11:53:02.309Z,75.60
2022-08-20T11:55:30.631Z,74.90
2022-08-20T11:58:00.509Z,75.50
2022-08-20T12:00:32.688Z,74.40
2022-08-20T12:03:08.676Z,73.40
2022-08-20T12:05:37.899Z,72.50
2022-08-20T12:08:05.754Z,71.60
2022-08-20T12:10:33.324Z,70.00
2022-08-20T12:13:00.400Z,69.70
2022-08-20T12:15:29.754Z,69.20
2022-08-20T12:17:56.797Z,73.90
2022-08-20T12:20:24.272Z,75.30
2022-08-20T12:22:51.247Z,75.10
2022-08-20T12:25:18.318Z,76.60
2022-08-20T12:27:46.767Z,78.30
2022-08-20T12:30:17.479Z,78.60
2022-08-20T12:32:44.741Z,78.80
2022-08-20T12:35:12.966Z,79.10
2022-08-20T12:37:40.653Z,82.40
2022-08-20T12:40:11.557Z,82.70
2022-08-20T12:42:38.433Z,82.00
2022-08-20T12:45:06.441Z,81.30
2022-08-20T12:47:36.941Z,81.50
2022-08-20T12:50:13.695Z,82.60
2022-08-20T12:52:41.793Z,83.50
2022-08-20T12:55:10.204Z,83.10
2022-08-20T12:57:41.769Z,83.90
2022-08-20T13:00:12.630Z,82.70
2022-08-20T13:02:41.220Z,81.90
2022-08-20T13:05:10.380Z,81.40
2022-08-20T13:07:40.663Z,80.80
2022-08-20T13:10:10.618Z,80.60
2022-08-20T13:12:37.633Z,78.90
2022-08-20T13:15:05.156Z,77.00
2022-08-20T13:17:38.416Z,76.90
2022-08-20T13:20:10.133Z,76.30
2022-08-20T13:22:37.149Z,75.10
2022-08-20T13:25:05.911Z,75.40
2022-08-20T13:27:33.163Z,75.70
2022-08-20T13:30:00.021Z,76.10
2022-08-20T13:32:26.984Z,77.00
2022-08-20T13:34:54.043Z,77.10
2022-08-20T13:37:26.203Z,76.40
2022-08-20T13:39:55.056Z,75.50
2022-08-20T13:42:22.314Z,72.60
2022-08-20T13:44:49.587Z,72.60
2022-08-20T13:47:20.433Z,72.10
2022-08-20T13:49:48.695Z,68.70
2022-08-20T13:52:16.973Z,65.80
2022-08-20T13:54:43.998Z,65.50
2022-08-20T13:57:13.636Z,64.00
2022-08-20T13:59:45.644Z,62.90
2022-08-20T14:02:13.787Z,61.90
2022-08-20T14:04:40.819Z,61.20
2022-08-20T14:07:14.819Z,61.30
2022-08-20T14:09:43.289Z,60.00
2022-08-20T14:12:11.354Z,60.90
2022-08-20T14:14:38.155Z,60.90
2022-08-20T14:17:18.897Z,62.00
2022-08-20T14:19:47.358Z,62.40
2022-08-20T14:22:14.423Z,62.20
2022-08-20T14:24:41.295Z,63.00
2022-08-20T14:27:08.475Z,64.10
2022-08-20T14:29:37.580Z,63.90
2022-08-20T14:32:05.693Z,64.50
2022-08-20T14:34:33.062Z,65.00
2022-08-20T14:37:24.434Z,65.20
2022-08-20T14:39:54.130Z,65.40
2022-08-20T14:42:24.329Z,66.10
2022-08-20T14:44:51.533Z,66.50
2022-08-20T14:47:21.406Z,66.80
2022-08-20T14:49:50.022Z,66.60
2022-08-20T14:52:18.528Z,66.70
2022-08-20T14:54:46.153Z,67.70
2022-08-20T14:57:15.156Z,68.20
2022-08-20T14:59:42.604Z,81.40
2022-08-20T15:02:11.552Z,91.60
2022-08-20T15:04:39.039Z,94.60
2022-08-20T15:07:16.352Z,98.60
2022-08-20T15:09:43.306Z,99.90
2022-08-20T15:12:10.142Z,99.90
2022-08-20T15:14:39.130Z,99.90
2022-08-20T15:17:06.433Z,99.90
2022-08-20T15:19:33.263Z,99.90
2022-08-20T15:22:00.485Z,99.90
2022-08-20T15:24:27.326Z,99.90
2022-08-20T15:26:54.199Z,99.90
2022-08-20T15:29:23.009Z,99.90
2022-08-20T15:31:51.250Z,99.90
2022-08-20T15:34:18.529Z,99.90
2022-08-20T15:36:45.919Z,99.90
2022-08-20T15:39:12.703Z,99.90
2022-08-20T15:41:39.586Z,99.90
2022-08-20T15:44:07.112Z,99.90
2022-08-20T15:46:36.303Z,99.90
2022-08-20T15:49:11.389Z,99.90
2022-08-20T15:51:46.649Z,99.90
2022-08-20T15:54:27.609Z,99.90
2022-08-20T15:57:19.578Z,99.90
2022-08-20T16:00:34.611Z,99.90
2022-08-20T16:03:10.210Z,99.90
2022-08-20T16:05:43.465Z,99.90
2022-08-20T16:08:22.318Z,99.90
2022-08-20T16:11:03.935Z,99.90
2022-08-20T16:13:38.817Z,99.90
2022-08-20T16:16:11.087Z,99.90
2022-08-20T16:18:39.867Z,99.90
2022-08-20T16:21:11.936Z,99.90
2022-08-20T16:23:40.669Z,99.90
2022-08-20T16:26:22.866Z,99.90
2022-08-20T16:29:11.359Z,99.90
2022-08-20T16:31:54.598Z,99.90
2022-08-20T16:34:51.551Z,99.90
2022-08-20T16:37:39.725Z,99.90
2022-08-20T16:40:09.906Z,99.90
2022-08-20T16:42:40.826Z,99.90
2022-08-20T16:45:18.626Z,99.90
2022-08-20T16:47:47.804Z,99.90
2022-08-20T16:50:35.557Z,99.90
2022-08-20T16:53:02.927Z,99.90
2022-08-20T16:55:29.947Z,99.90
2022-08-20T16:57:56.818Z,99.90
2022-08-20T17:00:44.936Z,99.90
2022-08-20T17:03:31.640Z,99.90
2022-08-20T17:06:43.227Z,99.90
2022-08-20T17:09:21.024Z,99.90
2022-08-20T17:11:48.960Z,99.90
2022-08-20T17:14:18.682Z,99.90
2022-08-20T17:16:51.505Z,97.50
2022-08-20T17:19:38.517Z,95.20
2022-08-20T17:22:11.746Z,93.60
2022-08-20T17:24:40.124Z,95.00
2022-08-20T17:27:14.755Z,96.00
2022-08-20T17:29:56.976Z,93.40
2022-08-20T17:32:29.049Z,93.50
2022-08-20T17:35:01.591Z,93.30
2022-08-20T17:37:39.305Z,92.10
2022-08-20T17:40:27.132Z,91.60
2022-08-20T17:43:02.130Z,91.10
2022-08-20T17:45:38.874Z,90.80
2022-08-20T17:48:13.474Z,90.70
2022-08-20T17:50:44.246Z,91.00
2022-08-20T17:53:23.330Z,91.20
2022-08-20T17:56:15.973Z,90.80
2022-08-20T17:59:03.203Z,91.20
2022-08-20T18:01:30.473Z,92.20
2022-08-20T18:03:58.197Z,92.20
2022-08-20T18:06:40.814Z,93.00
2022-08-20T18:09:16.307Z,93.40
2022-08-20T18:11:50.756Z,94.40
2022-08-20T18:14:56.290Z,95.30
2022-08-20T18:17:44.399Z,96.50
2022-08-20T18:20:24.352Z,96.70
2022-08-20T18:23:03.722Z,96.70
2022-08-20T18:25:59.438Z,96.70
2022-08-20T18:28:38.206Z,96.90
2022-08-20T18:31:08.981Z,98.40
2022-08-20T18:33:42.789Z,98.80
2022-08-20T18:36:22.487Z,98.40
2022-08-20T18:39:09.171Z,98.40
2022-08-20T18:41:38.569Z,99.50
2022-08-20T18:44:09.129Z,99.70
2022-08-20T18:46:38.608Z,99.70
2022-08-20T18:49:08.536Z,99.60
2022-08-20T18:51:48.858Z,99.90
2022-08-20T18:54:30.632Z,99.90
2022-08-20T18:57:06.509Z,99.80
2022-08-20T18:59:40.267Z,99.90
2022-08-20T19:02:23.636Z,99.90
2022-08-20T19:04:59.690Z,99.90
2022-08-20T19:07:45.683Z,99.90
2022-08-20T19:10:24.093Z,99.90
2022-08-20T19:13:16.098Z,99.90
2022-08-20T19:15:51.964Z,99.90
2022-08-20T19:18:27.864Z,99.90
2022-08-20T19:20:57.585Z,99.90
2022-08-20T19:23:31.735Z,99.90
2022-08-20T19:26:06.284Z,99.90
2022-08-20T19:29:11.686Z,99.90
2022-08-20T19:31:39.335Z,99.90
2022-08-20T19:34:19.846Z,99.90
2022-08-20T19:37:09.053Z,99.90
2022-08-20T19:39:51.126Z,99.90
2022-08-20T19:42:21.834Z,99.90
2022-08-20T19:45:08.945Z,99.90
2022-08-20T19:47:40.316Z,99.90
2022-08-20T19:50:12.794Z,99.90
2022-08-20T19:52:42.690Z,99.90
2022-08-20T19:55:20.807Z,99.90
2022-08-20T19:57:56.039Z,99.90
2022-08-20T20:00:25.011Z,99.90
2022-08-20T20:02:52.346Z,99.90
2022-08-20T20:05:19.394Z,99.90
2022-08-20T20:07:53.338Z,99.90
2022-08-20T20:10:24.687Z,99.90
2022-08-20T20:12:51.644Z,99.90
2022-08-20T20:15:19.022Z,99.90
2022-08-20T20:17:46.234Z,99.90
2022-08-20T20:20:24.890Z,99.90
2022-08-20T20:22:57.838Z,99.90
2022-08-20T20:25:33.926Z,99.90
2022-08-20T20:28:19.466Z,99.90
2022-08-20T20:30:50.098Z,99.90
2022-08-20T20:33:22.243Z,99.90
2022-08-20T20:36:07.663Z,99.90
2022-08-20T20:38:36.723Z,99.90
2022-08-20T20:41:06.005Z,99.90
2022-08-20T20:43:36.773Z,99.90
2022-08-20T20:46:12.431Z,99.90
2022-08-20T20:48:49.133Z,99.90
2022-08-20T20:51:26.501Z,99.90
2022-08-20T20:53:56.086Z,99.90
2022-08-20T20:56:30.016Z,99.90
2022-08-20T20:59:00.182Z,99.90
2022-08-20T21:01:45.634Z,99.90
2022-08-20T21:04:16.483Z,99.90
2022-08-20T21:06:43.892Z,99.90
2022-08-20T21:09:11.042Z,99.90
2022-08-20T21:11:37.905Z,99.90
2022-08-20T21:14:04.863Z,99.90
2022-08-20T21:16:31.796Z,99.90
2022-08-20T21:18:58.621Z,99.90
2022-08-20T21:21:25.577Z,99.90
2022-08-20T21:23:52.782Z,99.90
2022-08-20T21:26:19.941Z,99.90
2022-08-20T21:28:46.845Z,99.90
2022-08-20T21:31:13.811Z,99.90
2022-08-20T21:33:40.772Z,99.90
2022-08-20T21:36:07.951Z,99.90
2022-08-20T21:38:36.112Z,99.90
2022-08-20T21:41:03.665Z,99.90
2022-08-20T21:43:33.826Z,99.90
2022-08-20T21:46:04.022Z,99.90
2022-08-20T21:48:33.152Z,99.90
2022-08-20T21:51:00.286Z,99.90
2022-08-20T21:53:27.141Z,99.90
2022-08-20T21:55:54.267Z,99.90
2022-08-20T21:58:21.369Z,99.90
2022-08-20T22:00:53.855Z,99.90
2022-08-20T22:03:38.527Z,99.90
2022-08-20T22:06:07.257Z,99.90
2022-08-20T22:08:37.390Z,99.90
2022-08-20T22:11:06.983Z,99.90
2022-08-20T22:13:34.345Z,99.90
2022-08-20T22:16:03.853Z,99.90
2022-08-20T22:18:31.187Z,99.90
2022-08-20T22:20:58.256Z,99.90
2022-08-20T22:23:25.676Z,99.90
2022-08-20T22:25:52.792Z,99.90
2022-08-20T22:28:20.882Z,99.90
2022-08-20T22:30:50.396Z,99.90
2022-08-20T22:33:21.591Z,99.90
2022-08-20T22:35:51.890Z,99.90
2022-08-20T22:38:19.410Z,99.90
2022-08-20T22:40:46.607Z,99.90
2022-08-20T22:43:14.275Z,99.90
2022-08-20T22:45:43.724Z,99.90
2022-08-20T22:48:14.599Z,99.90
2022-08-20T22:50:41.599Z,99.90
2022-08-20T22:53:08.940Z,99.90
2022-08-20T22:55:38.561Z,99.90
2022-08-20T22:58:06.369Z,99.90
2022-08-20T23:00:33.942Z,99.90
2022-08-20T23:03:02.009Z,99.90
2022-08-20T23:05:32.134Z,99.90
2022-08-20T23:08:00.219Z,99.90
2022-08-20T23:10:29.960Z,99.90
2022-08-20T23:12:57.548Z,99.90
2022-08-20T23:15:28.882Z,99.90
2022-08-20T23:18:01.341Z,99.90
2022-08-20T23:20:28.420Z,99.90
2022-08-20T23:22:56.191Z,99.90
2022-08-20T23:25:23.587Z,99.90
2022-08-20T23:27:55.272Z,99.90
2022-08-20T23:30:24.513Z,99.90
2022-08-20T23:32:52.456Z,99.90
2022-08-20T23:35:20.095Z,99.90
2022-08-20T23:37:50.555Z,99.90
2022-08-20T23:40:19.560Z,99.90
2022-08-20T23:42:56.804Z,99.90
2022-08-20T23:45:30.021Z,99.90
2022-08-20T23:47:56.892Z,99.90
2022-08-20T23:50:27.844Z,99.90
2022-08-20T23:52:55.589Z,99.90
2022-08-20T23:55:23.210Z,99.90
2022-08-20T23:57:51.870Z,99.90
